createdAt,value
2018-12-19T00:00:56.333Z,71.90
2018-12-19T00:03:34.678Z,71.70
2018-12-19T00:06:18.442Z,71.90
2018-12-19T00:09:03.371Z,71.90
2018-12-19T00:11:49.232Z,72.20
2018-12-19T00:14:29.128Z,72.00
2018-12-19T00:17:09.427Z,72.10
2018-12-19T00:19:49.274Z,71.90
2018-12-19T00:22:27.202Z,72.50
2018-12-19T00:25:03.972Z,72.30
2018-12-19T00:27:43.540Z,73.20
2018-12-19T00:30:18.821Z,72.20
2018-12-19T00:33:02.373Z,72.40
2018-12-19T00:35:37.836Z,72.30
2018-12-19T00:38:18.306Z,72.40
2018-12-19T00:40:59.047Z,72.40
2018-12-19T00:43:44.936Z,71.90
2018-12-19T00:46:22.349Z,72.30
2018-12-19T00:49:03.299Z,72.20
2018-12-19T00:51:36.550Z,72.50
2018-12-19T00:54:15.277Z,73.20
2018-12-19T00:56:52.210Z,72.50
2018-12-19T00:59:32.586Z,72.60
2018-12-19T01:02:14.921Z,72.50
2018-12-19T01:04:57.560Z,72.60
2018-12-19T01:07:34.755Z,72.40
2018-12-19T01:10:15.692Z,72.60
2018-12-19T01:12:58.710Z,72.60
2018-12-19T01:15:29.366Z,72.50
2018-12-19T01:18:08.893Z,72.30
2018-12-19T01:20:48.109Z,72.40
2018-12-19T01:23:26.549Z,72.10
2018-12-19T01:26:01.962Z,71.90
2018-12-19T01:28:44.029Z,72.20
2018-12-19T01:31:14.990Z,72.10
2018-12-19T01:33:59.111Z,72.30
2018-12-19T01:36:38.196Z,71.80
2018-12-19T01:39:22.515Z,72.10
2018-12-19T01:42:00.857Z,72.10
2018-12-19T01:44:45.225Z,71.60
2018-12-19T01:47:25.812Z,71.50
2018-12-19T01:50:09.681Z,71.50
2018-12-19T01:52:47.615Z,71.60
2018-12-19T01:55:26.804Z,72.00
2018-12-19T01:58:06.999Z,72.20
2018-12-19T02:00:38.263Z,71.70
2018-12-19T02:03:14.545Z,72.30
2018-12-19T02:05:55.376Z,71.70
2018-12-19T02:08:34.140Z,71.70
2018-12-19T02:11:18.830Z,71.60
2018-12-19T02:13:58.121Z,71.50
2018-12-19T02:16:40.838Z,71.40
2018-12-19T02:19:22.879Z,71.00
2018-12-19T02:22:02.365Z,71.50
2018-12-19T02:24:32.040Z,71.80
2018-12-19T02:27:01.646Z,71.40
2018-12-19T02:29:30.558Z,71.60
2018-12-19T02:32:11.733Z,71.80
2018-12-19T02:34:50.649Z,71.70
2018-12-19T02:37:29.512Z,71.50
2018-12-19T02:40:08.228Z,71.20
2018-12-19T02:42:48.002Z,71.60
2018-12-19T02:45:27.382Z,71.90
2018-12-19T02:48:07.149Z,72.40
2018-12-19T02:50:48.741Z,72.50
2018-12-19T02:53:30.881Z,72.40
2018-12-19T02:56:10.800Z,72.30
2018-12-19T02:58:46.409Z,72.10
2018-12-19T03:01:29.107Z,71.60
2018-12-19T03:04:06.168Z,71.50
2018-12-19T03:06:46.388Z,71.20
2018-12-19T03:09:26.455Z,71.20
2018-12-19T03:12:06.542Z,71.50
2018-12-19T03:14:47.386Z,71.30
2018-12-19T03:17:28.896Z,71.50
2018-12-19T03:20:10.713Z,70.90
2018-12-19T03:22:47.030Z,71.20
2018-12-19T03:25:31.068Z,70.80
2018-12-19T03:28:10.263Z,71.10
2018-12-19T03:30:41.001Z,71.10
2018-12-19T03:33:18.996Z,71.30
2018-12-19T03:35:57.552Z,71.60
2018-12-19T03:38:37.422Z,71.40
2018-12-19T03:41:15.043Z,71.30
2018-12-19T03:43:54.591Z,70.80
2018-12-19T03:46:34.799Z,71.30
2018-12-19T03:49:16.088Z,71.40
2018-12-19T03:51:57.147Z,71.50
2018-12-19T03:54:38.644Z,71.30
2018-12-19T03:57:19.757Z,71.30
2018-12-19T03:59:58.913Z,71.50
2018-12-19T04:02:39.368Z,71.10
2018-12-19T04:05:21.978Z,71.30
2018-12-19T04:08:00.621Z,71.80
2018-12-19T04:10:40.171Z,71.90
2018-12-19T04:13:19.777Z,71.70
2018-12-19T04:16:03.470Z,71.70
2018-12-19T04:18:41.213Z,71.30
2018-12-19T04:21:23.178Z,71.10
2018-12-19T04:23:58.843Z,71.90
2018-12-19T04:26:39.382Z,71.60
2018-12-19T04:29:08.880Z,71.50
2018-12-19T04:31:48.491Z,71.70
2018-12-19T04:34:26.705Z,71.70
2018-12-19T04:37:06.697Z,71.60
2018-12-19T04:39:48.564Z,71.50
2018-12-19T04:42:27.327Z,71.60
2018-12-19T04:45:00.475Z,71.50
2018-12-19T04:47:37.860Z,70.80
2018-12-19T04:50:19.102Z,71.00
2018-12-19T04:52:58.995Z,71.50
2018-12-19T04:55:37.255Z,71.10
2018-12-19T04:58:17.752Z,71.60
2018-12-19T05:00:51.082Z,71.60
2018-12-19T05:03:28.345Z,71.70
2018-12-19T05:06:10.171Z,71.40
2018-12-19T05:08:47.528Z,70.70
2018-12-19T05:11:35.404Z,71.20
2018-12-19T05:14:10.047Z,71.30
2018-12-19T05:16:50.615Z,71.40
2018-12-19T05:19:32.349Z,71.80
2018-12-19T05:22:10.088Z,72.00
2018-12-19T05:24:50.055Z,71.50
2018-12-19T05:27:28.595Z,71.10
2018-12-19T05:30:10.313Z,70.90
2018-12-19T05:32:43.485Z,71.20
2018-12-19T05:35:18.580Z,71.60
2018-12-19T05:37:54.462Z,71.90
2018-12-19T05:40:34.038Z,71.60
2018-12-19T05:43:16.470Z,70.70
2018-12-19T05:45:46.607Z,70.60
2018-12-19T05:48:28.399Z,69.90
2018-12-19T05:51:08.218Z,70.00
2018-12-19T05:53:49.584Z,70.90
2018-12-19T05:56:31.421Z,71.40
2018-12-19T05:59:12.690Z,71.40
2018-12-19T06:01:44.330Z,70.90
2018-12-19T06:04:22.218Z,70.70
2018-12-19T06:07:01.809Z,70.70
2018-12-19T06:09:44.824Z,70.90
2018-12-19T06:12:28.665Z,71.00
2018-12-19T06:15:01.178Z,69.80
2018-12-19T06:17:40.126Z,70.30
2018-12-19T06:20:14.457Z,70.50
2018-12-19T06:22:50.744Z,71.00
2018-12-19T06:25:21.597Z,71.30
2018-12-19T06:28:01.382Z,71.20
2018-12-19T06:30:33.114Z,71.20
2018-12-19T06:33:13.698Z,71.80
2018-12-19T06:35:53.317Z,71.20
2018-12-19T06:38:29.895Z,71.90
2018-12-19T06:41:09.151Z,70.80
2018-12-19T06:43:51.405Z,71.20
2018-12-19T06:46:23.035Z,71.20
2018-12-19T06:49:04.313Z,71.50
2018-12-19T06:51:49.737Z,71.20
2018-12-19T06:54:28.344Z,71.10
2018-12-19T06:57:09.606Z,71.40
2018-12-19T06:59:49.823Z,71.50
2018-12-19T07:02:29.416Z,71.50
2018-12-19T07:05:10.606Z,71.20
2018-12-19T07:07:48.623Z,70.90
2018-12-19T07:10:27.407Z,71.10
2018-12-19T07:13:11.149Z,71.30
2018-12-19T07:15:42.629Z,71.20
2018-12-19T07:18:14.594Z,71.00
2018-12-19T07:20:54.045Z,70.90
2018-12-19T07:23:38.653Z,71.10
2018-12-19T07:26:21.882Z,71.00
2018-12-19T07:29:05.528Z,71.20
2018-12-19T07:31:50.639Z,71.10
2018-12-19T07:34:30.256Z,71.50
2018-12-19T07:37:02.560Z,70.60
2018-12-19T07:39:36.413Z,71.20
2018-12-19T07:42:14.046Z,71.20
2018-12-19T07:44:46.396Z,70.90
2018-12-19T07:47:21.186Z,71.20
2018-12-19T07:50:01.468Z,71.40
2018-12-19T07:52:42.938Z,71.10
2018-12-19T07:55:19.464Z,70.80
2018-12-19T07:57:59.870Z,70.70
2018-12-19T08:00:41.258Z,71.20
2018-12-19T08:03:21.334Z,71.20
2018-12-19T08:06:00.991Z,71.50
2018-12-19T08:08:39.378Z,70.80
2018-12-19T08:11:19.823Z,70.20
2018-12-19T08:13:59.651Z,70.70
2018-12-19T08:16:37.332Z,71.30
2018-12-19T08:19:08.061Z,71.60
2018-12-19T08:21:45.960Z,70.60
2018-12-19T08:24:24.201Z,70.60
2018-12-19T08:27:05.147Z,70.30
2018-12-19T08:29:44.676Z,70.20
2018-12-19T08:32:23.772Z,70.10
2018-12-19T08:35:10.615Z,70.10
2018-12-19T08:37:54.159Z,69.80
2018-12-19T08:40:34.022Z,70.00
2018-12-19T08:43:15.011Z,69.90
2018-12-19T08:45:54.631Z,69.90
2018-12-19T08:48:37.596Z,69.70
2018-12-19T08:51:18.539Z,69.80
2018-12-19T08:54:01.227Z,69.90
2018-12-19T08:56:42.340Z,70.80
2018-12-19T08:59:24.168Z,70.00
2018-12-19T09:02:05.024Z,70.20
2018-12-19T09:04:43.981Z,70.20
2018-12-19T09:07:23.652Z,69.60
2018-12-19T09:10:03.342Z,69.60
2018-12-19T09:12:45.688Z,69.80
2018-12-19T09:15:28.404Z,69.60
2018-12-19T09:18:03.390Z,69.90
2018-12-19T09:23:30.273Z,69.60
2018-12-19T09:26:11.935Z,69.70
2018-12-19T09:28:54.704Z,69.80
2018-12-19T09:31:34.818Z,69.50
2018-12-19T09:34:13.718Z,68.70
2018-12-19T09:36:56.773Z,68.50
2018-12-19T09:39:33.842Z,69.20
2018-12-19T09:42:20.257Z,69.20
2018-12-19T09:45:00.527Z,69.50
2018-12-19T09:47:42.689Z,69.60
2018-12-19T09:50:19.677Z,69.50
2018-12-19T09:53:01.292Z,69.20
2018-12-19T09:55:43.387Z,68.50
2018-12-19T09:58:25.730Z,68.70
2018-12-19T10:01:05.956Z,69.10
2018-12-19T10:03:43.777Z,69.50
2018-12-19T10:06:20.723Z,69.20
2018-12-19T10:09:05.687Z,68.90
2018-12-19T10:11:45.976Z,69.10
2018-12-19T10:14:27.445Z,68.80
2018-12-19T10:17:07.883Z,68.70
2018-12-19T10:19:55.026Z,69.20
2018-12-19T10:22:42.739Z,69.40
2018-12-19T10:25:21.983Z,68.90
2018-12-19T10:28:06.565Z,69.00
2018-12-19T10:30:56.887Z,69.10
2018-12-19T10:33:42.779Z,68.70
2018-12-19T10:36:28.176Z,68.80
2018-12-19T10:39:19.514Z,69.20
2018-12-19T10:42:02.186Z,68.80
2018-12-19T10:44:45.775Z,69.10
2018-12-19T10:47:29.298Z,69.60
2018-12-19T10:50:09.427Z,69.20
2018-12-19T10:52:53.327Z,68.90
2018-12-19T10:55:37.550Z,69.50
2018-12-19T10:58:19.518Z,69.40
2018-12-19T11:01:07.061Z,68.90
2018-12-19T11:03:52.506Z,69.40
2018-12-19T11:06:37.674Z,69.60
2018-12-19T11:09:22.316Z,69.30
2018-12-19T11:12:09.409Z,69.90
2018-12-19T11:14:54.432Z,69.70
2018-12-19T11:17:39.423Z,70.10
2018-12-19T11:20:24.531Z,70.60
2018-12-19T11:23:10.306Z,70.00
2018-12-19T11:25:51.189Z,70.80
2018-12-19T11:28:35.064Z,70.40
2018-12-19T11:31:18.089Z,70.70
2018-12-19T11:34:03.779Z,70.60
2018-12-19T11:36:46.022Z,71.00
2018-12-19T11:39:37.438Z,71.10
2018-12-19T11:42:17.584Z,70.50
2018-12-19T11:45:00.947Z,70.80
2018-12-19T11:47:40.568Z,71.40
2018-12-19T11:50:18.830Z,71.20
2018-12-19T11:52:57.442Z,71.50
2018-12-19T11:55:34.549Z,71.20
2018-12-19T11:58:17.054Z,71.10
2018-12-19T12:00:56.960Z,71.00
2018-12-19T12:03:35.460Z,71.30
2018-12-19T12:06:15.475Z,71.40
2018-12-19T12:08:55.667Z,71.50
2018-12-19T12:11:33.012Z,71.80
2018-12-19T12:14:09.123Z,71.70
2018-12-19T12:16:49.070Z,71.70
2018-12-19T12:19:28.962Z,72.00
2018-12-19T12:22:06.606Z,71.90
2018-12-19T12:24:46.871Z,72.40
2018-12-19T12:27:24.944Z,73.10
2018-12-19T12:30:06.443Z,72.70
2018-12-19T12:32:43.306Z,73.30
2018-12-19T12:35:21.578Z,73.70
2018-12-19T12:37:57.746Z,72.50
2018-12-19T12:40:39.914Z,72.40
2018-12-19T12:43:20.499Z,72.40
2018-12-19T12:46:00.802Z,73.10
2018-12-19T12:48:42.721Z,73.20
2018-12-19T12:51:18.713Z,73.50
2018-12-19T12:53:57.355Z,72.80
2018-12-19T12:56:34.373Z,73.10
2018-12-19T12:59:16.493Z,73.20
2018-12-19T13:01:56.258Z,73.40
2018-12-19T13:04:36.601Z,73.50
2018-12-19T13:07:16.547Z,73.30
2018-12-19T13:09:56.769Z,73.70
2018-12-19T13:12:36.955Z,73.50
2018-12-19T13:15:19.276Z,73.40
2018-12-19T13:17:58.527Z,73.50
2018-12-19T13:20:30.296Z,73.60
2018-12-19T13:23:13.579Z,73.30
2018-12-19T13:25:50.145Z,73.90
2018-12-19T13:28:32.044Z,74.30
2018-12-19T13:31:08.760Z,74.40
2018-12-19T13:33:49.504Z,74.50
2018-12-19T13:36:25.723Z,74.50
2018-12-19T13:39:03.820Z,74.60
2018-12-19T13:41:38.808Z,74.30
2018-12-19T13:44:19.199Z,74.30
2018-12-19T13:46:58.047Z,74.50
2018-12-19T13:49:37.591Z,74.30
2018-12-19T13:52:15.483Z,74.20
2018-12-19T13:54:53.290Z,74.50
2018-12-19T13:57:32.243Z,74.80
2018-12-19T14:00:13.443Z,74.40
2018-12-19T14:02:48.417Z,74.10
2018-12-19T14:05:33.852Z,73.70
2018-12-19T14:08:15.444Z,73.50
2018-12-19T14:10:54.565Z,73.80
2018-12-19T14:13:42.002Z,73.80
2018-12-19T14:16:17.857Z,73.60
2018-12-19T14:18:59.061Z,74.00
2018-12-19T14:21:42.980Z,74.60
2018-12-19T14:24:22.003Z,74.10
2018-12-19T14:27:01.739Z,74.00
2018-12-19T14:29:41.383Z,74.20
2018-12-19T14:32:21.977Z,74.20
2018-12-19T14:35:01.221Z,74.60
2018-12-19T14:37:37.195Z,74.10
2018-12-19T14:40:18.208Z,74.60
2018-12-19T14:42:54.044Z,74.40
2018-12-19T14:45:37.717Z,74.20
2018-12-19T14:48:15.685Z,74.40
2018-12-19T14:50:54.352Z,74.70
2018-12-19T14:53:29.751Z,74.90
2018-12-19T14:56:09.989Z,74.60
2018-12-19T14:58:48.363Z,74.80
2018-12-19T15:01:26.175Z,75.00
2018-12-19T15:04:06.304Z,74.60
2018-12-19T15:06:43.691Z,74.90
2018-12-19T15:09:21.133Z,75.00
2018-12-19T15:11:59.124Z,74.90
2018-12-19T15:14:37.177Z,74.60
2018-12-19T15:17:17.131Z,74.40
2018-12-19T15:19:54.203Z,74.80
2018-12-19T15:22:33.974Z,74.90
2018-12-19T15:25:12.240Z,74.90
2018-12-19T15:27:54.003Z,75.20
2018-12-19T15:30:31.997Z,75.10
2018-12-19T15:33:11.536Z,75.50
2018-12-19T15:35:51.106Z,75.30
2018-12-19T15:38:32.771Z,75.60
2018-12-19T15:41:09.595Z,75.80
2018-12-19T15:43:42.233Z,76.10
2018-12-19T15:46:14.324Z,76.50
2018-12-19T15:48:45.035Z,75.90
2018-12-19T15:51:18.911Z,76.40
2018-12-19T15:53:51.841Z,76.10
2018-12-19T15:56:25.001Z,76.30
2018-12-19T15:59:00.331Z,75.80
2018-12-19T16:01:38.020Z,75.90
2018-12-19T16:04:16.315Z,75.90
2018-12-19T16:06:54.207Z,75.80
2018-12-19T16:09:30.002Z,76.30
2018-12-19T16:12:06.213Z,76.20
2018-12-19T16:14:43.541Z,76.10
2018-12-19T16:17:22.004Z,75.50
2018-12-19T16:19:55.775Z,76.50
2018-12-19T16:22:31.239Z,76.20
2018-12-19T16:25:03.184Z,76.30
2018-12-19T16:27:40.839Z,76.00
2018-12-19T16:30:12.067Z,76.50
2018-12-19T16:32:42.825Z,76.50
2018-12-19T16:35:21.434Z,76.60
2018-12-19T16:37:58.704Z,76.50
2018-12-19T16:40:38.803Z,75.80
2018-12-19T16:43:20.874Z,75.90
2018-12-19T16:46:01.584Z,76.40
2018-12-19T16:48:40.457Z,76.20
2018-12-19T16:51:21.447Z,76.20
2018-12-19T16:54:02.376Z,76.30
2018-12-19T16:56:43.334Z,76.50
2018-12-19T16:59:25.183Z,76.20
2018-12-19T17:02:02.541Z,76.50
2018-12-19T17:04:40.715Z,76.20
2018-12-19T17:07:19.134Z,76.40
2018-12-19T17:10:00.105Z,76.10
2018-12-19T17:12:38.872Z,76.30
2018-12-19T17:15:17.726Z,76.20
2018-12-19T17:17:53.884Z,76.20
2018-12-19T17:20:31.448Z,76.50
2018-12-19T17:23:09.787Z,76.50
2018-12-19T17:25:47.739Z,76.20
2018-12-19T17:28:27.664Z,76.10
2018-12-19T17:31:05.218Z,76.80
2018-12-19T17:33:45.164Z,76.40
2018-12-19T17:36:24.612Z,76.20
2018-12-19T17:39:01.767Z,75.70
2018-12-19T17:41:38.652Z,75.70
2018-12-19T17:44:18.015Z,75.70
2018-12-19T17:46:59.429Z,75.90
2018-12-19T17:49:44.083Z,76.20
2018-12-19T17:52:20.642Z,75.50
2018-12-19T17:55:00.886Z,75.30
2018-12-19T17:57:40.276Z,75.40
2018-12-19T18:00:20.547Z,75.50
2018-12-19T18:02:57.931Z,75.90
2018-12-19T18:05:37.399Z,75.50
2018-12-19T18:08:19.092Z,75.80
2018-12-19T18:10:55.478Z,76.10
2018-12-19T18:13:37.144Z,75.90
2018-12-19T18:16:17.689Z,75.90
2018-12-19T18:18:56.135Z,75.60
2018-12-19T18:21:36.277Z,75.70
2018-12-19T18:24:16.979Z,75.80
2018-12-19T18:26:53.859Z,76.00
2018-12-19T18:29:31.173Z,75.40
2018-12-19T18:32:09.240Z,75.90
2018-12-19T18:34:47.583Z,76.30
2018-12-19T18:37:27.348Z,76.10
2018-12-19T18:40:10.294Z,75.90
2018-12-19T18:42:51.436Z,75.90
2018-12-19T18:45:28.881Z,76.00
2018-12-19T18:48:04.288Z,76.20
2018-12-19T18:50:42.054Z,75.70
2018-12-19T18:53:21.775Z,76.00
2018-12-19T18:56:02.619Z,76.40
2018-12-19T18:58:41.988Z,76.10
2018-12-19T19:01:20.790Z,76.10
2018-12-19T19:03:59.407Z,75.90
2018-12-19T19:06:40.129Z,76.00
2018-12-19T19:09:19.693Z,76.30
2018-12-19T19:11:50.683Z,76.40
2018-12-19T19:14:19.825Z,76.40
2018-12-19T19:16:54.768Z,76.60
2018-12-19T19:19:32.586Z,76.20
2018-12-19T19:22:07.040Z,75.90
2018-12-19T19:24:43.196Z,75.70
2018-12-19T19:27:20.213Z,75.80
2018-12-19T19:30:08.101Z,75.50
2018-12-19T19:32:48.111Z,75.70
2018-12-19T19:35:26.326Z,75.80
2018-12-19T19:38:04.200Z,75.70
2018-12-19T19:40:38.345Z,75.80
2018-12-19T19:43:16.505Z,75.90
2018-12-19T19:45:46.952Z,75.70
2018-12-19T19:48:23.163Z,76.10
2018-12-19T19:51:06.254Z,76.00
2018-12-19T19:53:41.993Z,75.90
2018-12-19T19:56:21.068Z,76.30
2018-12-19T19:58:59.516Z,76.00
2018-12-19T20:01:38.025Z,76.10
2018-12-19T20:04:16.511Z,76.10
2018-12-19T20:06:59.273Z,75.40
2018-12-19T20:09:33.767Z,75.70
2018-12-19T20:12:09.427Z,76.10
2018-12-19T20:14:41.357Z,76.50
2018-12-19T20:17:19.727Z,76.70
2018-12-19T20:19:50.873Z,76.40
2018-12-19T20:22:31.094Z,76.50
2018-12-19T20:25:08.055Z,76.70
2018-12-19T20:27:44.728Z,76.70
2018-12-19T20:30:19.762Z,76.80
2018-12-19T20:32:49.858Z,76.50
2018-12-19T20:35:29.037Z,76.30
2018-12-19T20:38:07.531Z,76.30
2018-12-19T20:40:53.156Z,76.00
2018-12-19T20:43:27.161Z,76.20
2018-12-19T20:45:58.726Z,75.60
2018-12-19T20:48:41.121Z,75.80
2018-12-19T20:51:16.716Z,75.50
2018-12-19T20:54:09.796Z,75.80
2018-12-19T20:56:44.080Z,75.60
2018-12-19T20:59:21.475Z,76.60
2018-12-19T21:01:50.504Z,75.80
2018-12-19T21:04:21.043Z,76.10
2018-12-19T21:06:52.994Z,75.90
2018-12-19T21:09:33.029Z,76.20
2018-12-19T21:12:14.901Z,76.30
2018-12-19T21:14:56.715Z,76.60
2018-12-19T21:17:36.342Z,76.40
2018-12-19T21:20:07.628Z,76.20
2018-12-19T21:22:41.851Z,76.30
2018-12-19T21:25:17.690Z,76.20
2018-12-19T21:27:52.693Z,76.10
2018-12-19T21:30:30.749Z,76.10
2018-12-19T21:33:13.975Z,76.30
2018-12-19T21:35:46.792Z,76.20
2018-12-19T21:38:25.554Z,75.90
2018-12-19T21:41:06.307Z,76.30
2018-12-19T21:43:43.933Z,76.00
2018-12-19T21:46:21.055Z,75.90
2018-12-19T21:48:57.264Z,76.20
2018-12-19T21:51:32.921Z,76.40
2018-12-19T21:54:07.407Z,76.80
2018-12-19T21:56:45.221Z,76.50
2018-12-19T21:59:21.481Z,76.20
2018-12-19T22:02:05.690Z,76.40
2018-12-19T22:04:36.518Z,76.60
2018-12-19T22:07:05.970Z,76.50
2018-12-19T22:09:44.177Z,76.10
2018-12-19T22:12:19.536Z,75.80
2018-12-19T22:14:50.736Z,76.60
2018-12-19T22:17:30.599Z,76.70
2018-12-19T22:20:01.547Z,76.10
2018-12-19T22:22:33.549Z,77.00
2018-12-19T22:25:11.584Z,76.40
2018-12-19T22:27:39.961Z,76.70
2018-12-19T22:30:15.633Z,76.80
2018-12-19T22:32:50.399Z,76.40
2018-12-19T22:35:23.685Z,77.00
2018-12-19T22:37:57.181Z,76.90
2018-12-19T22:40:35.136Z,76.70
2018-12-19T22:43:09.296Z,76.40
2018-12-19T22:45:44.998Z,77.40
2018-12-19T22:48:21.148Z,77.20
2018-12-19T22:50:54.585Z,77.40
2018-12-19T22:53:34.000Z,77.00
2018-12-19T22:56:09.033Z,77.10
2018-12-19T22:58:45.335Z,77.10
2018-12-19T23:01:27.610Z,77.70
2018-12-19T23:04:11.936Z,77.00
2018-12-19T23:06:51.180Z,76.40
2018-12-19T23:09:36.912Z,76.80
2018-12-19T23:12:13.597Z,76.90
2018-12-19T23:14:54.677Z,76.80
2018-12-19T23:17:37.637Z,77.40
2018-12-19T23:20:17.952Z,76.70
2018-12-19T23:22:51.490Z,76.90
2018-12-19T23:25:26.721Z,76.90
2018-12-19T23:28:02.671Z,76.60
2018-12-19T23:30:42.294Z,76.60
2018-12-19T23:33:19.480Z,76.70
2018-12-19T23:35:52.815Z,76.80
2018-12-19T23:38:29.808Z,77.20
2018-12-19T23:41:11.638Z,77.20
2018-12-19T23:43:49.186Z,77.00
2018-12-19T23:46:23.953Z,76.70
2018-12-19T23:48:59.082Z,76.80
2018-12-19T23:51:38.873Z,76.80
2018-12-19T23:54:12.251Z,77.00
2018-12-19T23:56:47.782Z,76.80
2018-12-19T23:59:24.466Z,77.10
